Time;durP1;ratioP1;P1;durP2;ratioP2;P2;SDS_P1;SDS_P2;PMS_P1;PMS_P2;Temp;Humidity;BMP_temperature;BMP_pressure;BME280_temperature;BME280_humidity;BME280_pressure;Samples;Min_cycle;Max_cycle;Signal;HPM_P1;HPM_P2
2023/04/13 00:02:16;;;;;;;0.28;0.28;;;;;;;18.89;44.56;99364.22;5114942;28;20258;-49
2023/04/13 00:04:42;;;;;;;0.30;0.30;;;;;;;18.89;44.48;99368.94;5114784;28;20051;-47
2023/04/13 00:07:13;;;;;;;0.20;0.20;;;;;;;18.89;44.45;99366.19;5096733;28;20470;-49
2023/04/13 00:09:40;;;;;;;0.22;0.22;;;;;;;18.89;44.50;99366.19;5114578;28;20078;-48
2023/04/13 00:12:06;;;;;;;0.20;0.20;;;;;;;18.88;44.69;99368.13;5096588;28;20054;-48
2023/04/13 00:14:32;;;;;;;0.20;0.20;;;;;;;18.89;44.47;99363.41;5096384;28;20055;-49
2023/04/13 00:16:59;;;;;;;0.20;0.20;;;;;;;18.88;44.42;99365.38;5115031;28;20063;-48
2023/04/13 00:19:25;;;;;;;0.22;0.22;;;;;;;18.89;44.44;99363.41;5114859;28;20079;-50
2023/04/13 00:21:52;;;;;;;0.20;0.20;;;;;;;18.88;44.49;99361.81;5114470;28;20047;-48
2023/04/13 00:24:18;;;;;;;0.20;0.20;;;;;;;18.89;44.56;99358.72;5096415;28;20082;-48
2023/04/13 00:26:45;;;;;;;0.20;0.20;;;;;;;18.89;44.69;99350.44;5114198;27;20545;-48
2023/04/13 00:29:11;;;;;;;0.30;0.30;;;;;;;18.88;44.38;99346.06;5116527;27;20559;-48
2023/04/13 00:31:36;;;;;;;0.20;0.20;;;;;;;18.87;44.71;99347.19;5118090;28;20463;-48
2023/04/13 00:34:03;;;;;;;0.20;0.20;;;;;;;18.88;44.34;99343.31;5118416;28;20522;-48
2023/04/13 00:36:28;;;;;;;0.20;0.20;;;;;;;18.89;44.57;99344.13;5099637;28;20043;-48
2023/04/13 00:38:56;;;;;;;0.30;0.30;;;;;;;18.89;44.34;99346.88;5118423;28;20501;-49
2023/04/13 00:41:24;;;;;;;0.22;0.22;;;;;;;18.88;44.41;99346.06;5117777;28;20075;-48
2023/04/13 00:43:51;;;;;;;0.20;0.20;;;;;;;18.88;44.64;99350.78;5107720;28;20047;-47
2023/04/13 00:46:18;;;;;;;0.20;0.20;;;;;;;18.88;44.71;99348.00;5078969;28;20085;-48
2023/04/13 00:48:44;;;;;;;0.20;0.20;;;;;;;18.88;44.57;99348.00;5062852;28;20070;-48
2023/04/13 00:51:10;;;;;;;0.20;0.20;;;;;;;18.88;44.47;99346.06;5097297;28;20054;-48
2023/04/13 00:53:36;;;;;;;0.25;0.25;;;;;;;18.87;44.62;99344.44;5096921;28;20075;-48
2023/04/13 00:56:04;;;;;;;0.20;0.20;;;;;;;18.88;44.64;99343.31;5078622;28;20050;-48
2023/04/13 00:58:32;;;;;;;0.20;0.20;;;;;;;18.88;44.33;99332.28;5097423;28;20075;-49
2023/04/13 01:00:57;;;;;;;0.30;0.30;;;;;;;18.87;44.73;99330.66;5078716;28;20422;-48
2023/04/13 01:03:24;;;;;;;0.20;0.20;;;;;;;18.88;44.61;99337.78;5096958;28;20503;-48
2023/04/13 01:05:59;;;;;;;0.20;0.20;;;;;;;18.88;44.34;99328.69;5096785;28;20043;-48
2023/04/13 01:08:29;;;;;;;0.20;0.20;;;;;;;18.87;44.35;99327.91;5097091;28;20055;-48
2023/04/13 01:11:03;;;;;;;0.20;0.20;;;;;;;18.88;44.44;99331.47;5097206;28;20088;-48
2023/04/13 01:13:34;;;;;;;0.20;0.20;;;;;;;18.89;44.27;99322.03;5096653;28;20522;-50
2023/04/13 01:16:07;;;;;;;0.20;0.20;;;;;;;18.88;44.54;99328.69;5096345;28;20044;-49
2023/04/13 01:18:34;;;;;;;0.20;0.20;;;;;;;18.88;44.62;99324.00;5096749;28;20441;-48
2023/04/13 01:21:00;;;;;;;0.25;0.25;;;;;;;18.87;44.65;99330.66;5096824;28;20430;-49
2023/04/13 01:23:36;;;;;;;0.20;0.20;;;;;;;18.88;44.31;99331.47;5096212;28;20055;-49
2023/04/13 01:26:07;;;;;;;0.20;0.20;;;;;;;18.88;44.70;99328.69;5115680;28;20054;-49
2023/04/13 01:28:35;;;;;;;0.20;0.20;;;;;;;18.87;44.67;99330.66;5115723;27;20054;-49
2023/04/13 01:31:04;;;;;;;0.20;0.20;;;;;;;18.88;44.45;99323.19;5117334;28;20391;-49
2023/04/13 01:33:32;;;;;;;0.20;0.20;;;;;;;18.88;44.58;99320.44;5116641;28;20138;-49
2023/04/13 01:35:59;;;;;;;0.20;0.20;;;;;;;18.87;44.60;99311.34;5117038;28;20069;-50
2023/04/13 01:38:25;;;;;;;0.20;0.20;;;;;;;18.87;44.53;99314.09;5116778;28;20039;-49
2023/04/13 01:40:50;;;;;;;0.20;0.20;;;;;;;18.87;44.32;99316.03;5098617;28;20411;-52
2023/04/13 01:43:18;;;;;;;0.20;0.20;;;;;;;18.87;44.37;99310.50;5097970;28;20181;-49
2023/04/13 01:48:42;;;;;;;0.20;0.20;;;;;;;18.88;44.31;99324.00;5174632;27;20120;-46
2023/04/13 01:51:15;;;;;;;0.20;0.20;;;;;;;18.87;44.33;99319.63;5134925;27;20091;-46
2023/04/13 01:53:43;;;;;;;0.20;0.20;;;;;;;18.87;44.33;99314.09;5153226;27;20073;-45
2023/04/13 01:56:11;;;;;;;0.20;0.20;;;;;;;18.87;44.37;99307.75;5153278;27;20162;-45
2023/04/13 01:58:39;;;;;;;0.22;0.22;;;;;;;18.87;44.41;99313.25;5135087;27;20046;-45
2023/04/13 02:01:06;;;;;;;0.20;0.20;;;;;;;18.86;44.44;99315.22;5153574;27;20039;-45
2023/04/13 02:03:34;;;;;;;0.20;0.20;;;;;;;18.86;44.45;99320.72;5114344;27;20070;-46
2023/04/13 02:06:02;;;;;;;0.20;0.20;;;;;;;18.87;44.27;99322.38;5125416;27;20574;-47
2023/04/13 02:08:28;;;;;;;0.20;0.20;;;;;;;18.87;44.49;99319.63;5134388;27;20054;-46
2023/04/13 02:10:54;;;;;;;0.20;0.20;;;;;;;18.87;44.39;99327.06;5153082;27;20078;-46
2023/04/13 02:13:19;;;;;;;0.30;0.30;;;;;;;18.87;44.32;99322.38;5153139;27;20046;-46
2023/04/13 02:15:45;;;;;;;0.20;0.20;;;;;;;18.87;44.50;99324.28;5152809;27;20043;-45
2023/04/13 02:18:12;;;;;;;0.25;0.25;;;;;;;18.85;44.33;99319.09;5152979;27;20073;-47
2023/04/13 02:20:42;;;;;;;0.30;0.30;;;;;;;18.86;44.52;99320.72;5152481;27;20111;-48
2023/04/13 02:23:10;;;;;;;0.20;0.20;;;;;;;18.86;44.32;99325.44;5134736;27;20071;-46
2023/04/13 02:25:36;;;;;;;0.20;0.20;;;;;;;18.87;44.55;99327.06;5134022;27;20038;-46
2023/04/13 02:28:02;;;;;;;0.20;0.20;;;;;;;18.86;44.58;99326.25;5138602;27;20050;-46
2023/04/13 02:30:28;;;;;;;0.20;0.20;;;;;;;18.86;44.55;99326.25;5152243;27;20050;-46
2023/04/13 02:32:54;;;;;;;0.20;0.20;;;;;;;18.86;44.14;99322.69;5135083;27;20039;-48
2023/04/13 02:35:20;;;;;;;0.20;0.20;;;;;;;18.87;44.52;99327.91;5113332;27;20499;-46
2023/04/13 02:37:47;;;;;;;0.30;0.30;;;;;;;18.86;44.43;99334.50;5131725;27;20062;-46
2023/04/13 02:40:13;;;;;;;0.30;0.30;;;;;;;18.86;44.17;99334.50;5131542;27;20047;-45
2023/04/13 02:42:40;;;;;;;0.20;0.20;;;;;;;18.87;44.52;99335.31;5112893;27;20352;-47
2023/04/13 02:45:07;;;;;;;0.20;0.20;;;;;;;18.86;44.21;99331.75;5130938;27;20047;-46
2023/04/13 02:47:33;;;;;;;0.20;0.20;;;;;;;18.86;44.37;99337.28;5113153;27;20479;-47
2023/04/13 02:50:00;;;;;;;0.20;0.20;;;;;;;18.86;44.57;99325.44;5132225;27;20570;-47
2023/04/13 02:52:26;;;;;;;0.20;0.20;;;;;;;18.85;44.23;99338.41;5113379;27;20039;-45
2023/04/13 02:54:53;;;;;;;0.20;0.20;;;;;;;18.87;44.27;99338.09;5132037;27;20039;-46
2023/04/13 02:57:21;;;;;;;0.30;0.30;;;;;;;18.87;44.39;99340.84;5131649;27;20075;-45
2023/04/13 02:59:47;;;;;;;0.20;0.20;;;;;;;18.87;44.15;99343.59;5101342;28;20074;-46
2023/04/13 03:02:13;;;;;;;0.20;0.20;;;;;;;18.87;44.21;99351.88;5118021;28;20047;-46
2023/04/13 03:04:39;;;;;;;0.20;0.20;;;;;;;18.85;44.37;99346.69;5118227;28;20437;-46
2023/04/13 03:07:08;;;;;;;0.20;0.20;;;;;;;18.86;44.45;99341.97;5117184;28;20381;-48
2023/04/13 03:09:36;;;;;;;0.20;0.20;;;;;;;18.87;44.29;99349.13;5117521;28;20519;-45
2023/04/13 03:12:01;;;;;;;0.20;0.20;;;;;;;18.86;44.46;99353.00;5099253;28;20043;-45
2023/04/13 03:14:28;;;;;;;0.20;0.20;;;;;;;18.86;44.40;99353.00;5118146;28;20417;-45
2023/04/13 03:16:56;;;;;;;0.20;0.20;;;;;;;18.85;44.33;99356.91;5099713;28;20043;-48
2023/04/13 03:19:22;;;;;;;0.20;0.20;;;;;;;18.86;44.07;99355.78;5117785;28;20047;-45
2023/04/13 03:21:49;;;;;;;0.20;0.20;;;;;;;18.85;44.41;99357.72;5118079;28;20047;-47
2023/04/13 03:24:14;;;;;;;0.30;0.30;;;;;;;18.84;44.28;99358.84;5117620;28;20089;-45
2023/04/13 03:26:40;;;;;;;0.20;0.20;;;;;;;18.86;44.10;99358.53;5098094;28;20463;-46
2023/04/13 03:29:06;;;;;;;0.20;0.20;;;;;;;18.86;44.19;99364.84;5116857;28;20051;-46
2023/04/13 03:31:32;;;;;;;0.20;0.20;;;;;;;18.85;44.16;99360.47;5116660;27;20381;-45
2023/04/13 03:33:57;;;;;;;0.20;0.20;;;;;;;18.86;44.13;99373.13;5078633;28;20046;-46
2023/04/13 03:36:26;;;;;;;0.20;0.20;;;;;;;18.85;44.51;99368.75;5093706;28;20066;-47
2023/04/13 03:38:52;;;;;;;0.20;0.20;;;;;;;18.86;44.32;99364.03;5099331;28;20108;-45
2023/04/13 03:41:18;;;;;;;0.20;0.20;;;;;;;18.86;44.22;99375.09;5098993;28;20776;-46
2023/04/13 03:43:44;;;;;;;0.20;0.20;;;;;;;18.86;44.15;99377.84;5117170;28;20043;-45
2023/04/13 03:46:10;;;;;;;0.20;0.20;;;;;;;18.86;44.32;99378.66;5117439;28;20043;-47
2023/04/13 03:48:35;;;;;;;0.20;0.20;;;;;;;18.86;44.41;99372.31;5102492;28;20073;-46
2023/04/13 03:51:01;;;;;;;0.20;0.20;;;;;;;18.86;44.07;99383.34;5116848;28;20123;-47
2023/04/13 03:53:27;;;;;;;0.20;0.20;;;;;;;18.85;44.39;99384.50;5117146;28;20145;-45
2023/04/13 03:55:53;;;;;;;0.20;0.20;;;;;;;18.86;44.36;99388.88;5117097;28;20088;-49
2023/04/13 03:58:18;;;;;;;0.20;0.20;;;;;;;18.85;44.22;99387.25;5117357;28;20336;-46
2023/04/13 04:00:44;;;;;;;0.20;0.20;;;;;;;18.86;44.28;99388.88;5098773;28;20047;-47
2023/04/13 04:03:10;;;;;;;0.20;0.20;;;;;;;18.86;44.40;99410.94;5117135;28;20039;-48
2023/04/13 04:05:38;;;;;;;0.30;0.30;;;;;;;18.86;44.04;99402.66;5116834;28;20334;-46
2023/04/13 04:08:04;;;;;;;;;;;;;;;18.86;44.29;99405.41;5099460;28;20039;-46
2023/04/13 04:10:30;;;;;;;0.20;0.20;;;;;;;18.84;44.17;99408.50;5097316;28;19968;-47
2023/04/13 04:12:56;;;;;;;0.30;0.30;;;;;;;18.84;44.24;99403.00;5098003;28;20120;-48
2023/04/13 04:15:22;;;;;;;0.20;0.20;;;;;;;18.85;44.44;99412.88;5097973;28;20427;-45
2023/04/13 04:17:48;;;;;;;0.20;0.20;;;;;;;18.85;44.41;99412.88;5116844;28;20050;-47
2023/04/13 04:20:14;;;;;;;0.20;0.20;;;;;;;18.84;44.33;99425.06;5116511;28;20476;-47
2023/04/13 04:22:40;;;;;;;0.20;0.20;;;;;;;18.85;44.13;99418.41;5116297;28;20588;-46
2023/04/13 04:25:07;;;;;;;0.20;0.20;;;;;;;18.85;44.23;99420.34;5115866;28;20066;-46
2023/04/13 04:27:37;;;;;;;0.20;0.20;;;;;;;18.86;44.09;99433.00;5115830;27;20075;-48
2023/04/13 04:30:04;;;;;;;0.20;0.20;;;;;;;18.85;44.21;99418.41;5098382;28;20116;-45
2023/04/13 04:32:32;;;;;;;0.20;0.20;;;;;;;18.85;44.12;99429.44;5115241;27;20138;-45
2023/04/13 04:34:59;;;;;;;0.30;0.30;;;;;;;18.86;44.13;99430.25;5097664;28;20039;-46
2023/04/13 04:37:24;;;;;;;0.30;0.30;;;;;;;18.86;44.28;99433.00;5115881;28;20082;-46
2023/04/13 04:39:50;;;;;;;0.20;0.20;;;;;;;18.84;44.10;99441.59;5116069;28;20043;-46
2023/04/13 04:42:17;;;;;;;0.20;0.20;;;;;;;18.86;44.30;99449.56;5116135;28;20538;-46
2023/04/13 04:44:43;;;;;;;0.20;0.20;;;;;;;18.86;44.27;99446.78;5115595;28;20057;-47
2023/04/13 04:47:12;;;;;;;0.30;0.30;;;;;;;18.85;44.19;99457.03;5115868;28;20552;-45
2023/04/13 04:49:37;;;;;;;0.20;0.20;;;;;;;18.86;44.15;99463.34;5104570;28;20078;-49
2023/04/13 04:52:03;;;;;;;0.20;0.20;;;;;;;18.85;44.36;99475.50;5116000;27;20051;-45
2023/04/13 04:54:29;;;;;;;0.20;0.20;;;;;;;18.86;44.17;99468.88;5090994;28;20193;-48
2023/04/13 04:56:56;;;;;;;0.20;0.20;;;;;;;18.84;44.25;99474.69;5095280;28;20075;-45
2023/04/13 04:59:22;;;;;;;0.20;0.20;;;;;;;18.85;44.42;99487.34;5077975;28;20066;-45
2023/04/13 05:01:48;;;;;;;0.20;0.20;;;;;;;18.85;44.33;99486.53;5077638;28;20040;-49
2023/04/13 05:04:14;;;;;;;0.30;0.30;;;;;;;18.84;44.21;99485.75;5076870;28;20047;-45
2023/04/13 05:06:40;;;;;;;0.20;0.20;;;;;;;18.84;44.54;99490.44;5077304;28;20469;-46
2023/04/13 05:09:06;;;;;;;0.20;0.20;;;;;;;18.85;44.07;99503.09;5095522;28;20432;-46
2023/04/13 05:11:32;;;;;;;0.20;0.20;;;;;;;18.84;44.34;99496.78;5095687;28;20047;-46
2023/04/13 05:14:00;;;;;;;0.20;0.20;;;;;;;18.84;44.19;99507.81;5060187;28;20373;-45
2023/04/13 05:16:29;;;;;;;0.30;0.30;;;;;;;18.85;44.17;99509.44;5095230;28;20487;-47
2023/04/13 05:18:55;;;;;;;0.20;0.20;;;;;;;18.84;44.12;99520.78;5095638;28;20507;-49
2023/04/13 05:21:21;;;;;;;0.20;0.20;;;;;;;18.85;44.25;99528.72;5095310;28;20086;-45
2023/04/13 05:23:47;;;;;;;0.20;0.20;;;;;;;18.84;44.10;99529.88;5059944;28;20044;-46
2023/04/13 05:26:15;;;;;;;0.20;0.20;;;;;;;18.84;44.30;99535.38;5102511;28;20495;-48
2023/04/13 05:28:41;;;;;;;;;;;;;;;18.84;44.06;99546.41;5077680;28;20086;-45
2023/04/13 05:31:07;;;;;;;0.20;0.20;;;;;;;18.83;44.20;99541.22;5100458;27;19931;-47
2023/04/13 05:33:33;;;;;;;0.20;0.20;;;;;;;18.84;44.16;99551.94;5097190;28;20406;-46
2023/04/13 05:36:00;;;;;;;0.20;0.20;;;;;;;18.84;44.28;99564.91;5096923;28;20249;-48
2023/04/13 05:38:25;;;;;;;0.20;0.20;;;;;;;18.85;44.12;99561.03;5114891;28;20054;-47
2023/04/13 05:40:52;;;;;;;0.30;0.30;;;;;;;18.85;44.34;99563.78;5097083;28;20039;-45
2023/04/13 05:43:18;;;;;;;0.22;0.22;;;;;;;18.84;44.26;99562.16;5115164;28;20051;-46
2023/04/13 05:45:44;;;;;;;0.25;0.25;;;;;;;18.84;44.05;99571.25;5114611;28;20448;-45
2023/04/13 05:48:10;;;;;;;0.25;0.25;;;;;;;18.84;43.99;99574.00;5096704;28;20571;-48
2023/04/13 05:50:36;;;;;;;0.22;0.22;;;;;;;18.85;44.20;99583.09;5114651;28;20100;-45
2023/04/13 05:53:04;;;;;;;0.30;0.30;;;;;;;18.84;44.42;99587.78;5114125;28;20043;-46
2023/04/13 05:55:31;;;;;;;0.20;0.20;;;;;;;18.84;44.03;99600.78;5094524;28;20488;-45
2023/04/13 05:57:57;;;;;;;0.20;0.20;;;;;;;18.84;44.40;99595.25;5094518;28;20117;-48
2023/04/13 06:00:22;;;;;;;0.20;0.20;;;;;;;18.83;44.27;99596.38;5094729;28;20044;-47
2023/04/13 06:02:49;;;;;;;0.20;0.20;;;;;;;18.84;44.15;99604.34;5095002;28;20470;-46
2023/04/13 06:05:17;;;;;;;0.20;0.20;;;;;;;18.84;44.30;99609.88;5094071;28;20055;-46
2023/04/13 06:07:45;;;;;;;0.20;0.20;;;;;;;18.84;44.03;99609.03;5076311;28;20043;-46
2023/04/13 06:10:11;;;;;;;0.20;0.20;;;;;;;18.84;44.00;99603.53;5076035;28;20123;-49
2023/04/13 06:12:37;;;;;;;0.20;0.20;;;;;;;18.84;44.17;99614.56;5059893;28;20094;-46
2023/04/13 06:15:03;;;;;;;0.20;0.20;;;;;;;18.83;44.24;99612.94;5075992;28;20059;-49
2023/04/13 06:17:29;;;;;;;0.20;0.20;;;;;;;18.83;43.89;99619.25;5094361;28;20069;-46
2023/04/13 06:19:55;;;;;;;0.20;0.20;;;;;;;18.84;44.32;99631.94;5075770;28;20476;-46
2023/04/13 06:22:21;;;;;;;0.20;0.20;;;;;;;18.83;44.16;99638.56;5094506;28;20362;-45
2023/04/13 06:24:49;;;;;;;0.25;0.25;;;;;;;18.84;44.06;99642.97;5094750;28;20043;-46
2023/04/13 06:27:14;;;;;;;0.20;0.20;;;;;;;18.83;44.07;99652.38;5079727;28;20082;-45
2023/04/13 06:29:40;;;;;;;0.20;0.20;;;;;;;18.84;44.24;99651.22;5094150;28;20044;-44
2023/04/13 06:32:06;;;;;;;0.30;0.30;;;;;;;18.84;44.07;99662.28;5094027;28;20047;-47
2023/04/13 06:34:33;;;;;;;0.20;0.20;;;;;;;18.84;44.11;99659.50;5114678;27;20047;-46
2023/04/13 06:36:58;;;;;;;0.20;0.20;;;;;;;18.84;44.24;99661.47;5115858;27;20055;-49
2023/04/13 06:39:24;;;;;;;0.20;0.20;;;;;;;18.83;44.32;99663.41;5117751;27;20137;-45
2023/04/13 06:41:53;;;;;;;;;;;;;;;18.83;44.01;99657.88;5116919;28;20051;-44
2023/04/13 06:44:18;;;;;;;0.20;0.20;;;;;;;18.82;44.08;99658.97;5105959;28;19968;-45
2023/04/13 06:46:44;;;;;;;0.30;0.30;;;;;;;18.83;44.10;99651.56;5097240;28;20509;-48
2023/04/13 06:49:12;;;;;;;0.20;0.20;;;;;;;18.84;44.23;99666.97;5097558;28;20105;-45
2023/04/13 06:51:37;;;;;;;0.20;0.20;;;;;;;18.83;44.12;99674.44;5097923;28;20051;-46
2023/04/13 06:54:03;;;;;;;0.20;0.20;;;;;;;18.83;44.14;99670.88;5107912;28;20086;-48
2023/04/13 06:56:29;;;;;;;0.30;0.30;;;;;;;18.83;44.21;99676.38;5097627;28;20044;-45
2023/04/13 06:59:00;;;;;;;0.20;0.20;;;;;;;18.84;44.30;99686.28;5096770;28;20056;-45
2023/04/13 07:01:28;;;;;;;0.20;0.20;;;;;;;18.84;44.03;99689.03;5097459;28;20048;-46
2023/04/13 07:03:54;;;;;;;0.20;0.20;;;;;;;18.83;44.10;99695.69;5096970;28;20089;-45
2023/04/13 07:06:21;;;;;;;0.20;0.20;;;;;;;18.83;44.01;99693.75;5097272;28;20452;-48
2023/04/13 07:08:46;;;;;;;0.20;0.20;;;;;;;18.83;44.15;99693.75;5078609;28;20071;-46
2023/04/13 07:11:13;;;;;;;0.20;0.20;;;;;;;18.69;44.44;99706.66;5078979;28;20050;-41
2023/04/13 07:13:39;;;;;;;0.20;0.20;;;;;;;18.71;46.07;99701.72;5078603;28;20108;-46
2023/04/13 07:16:07;;;;;;;0.20;0.20;;;;;;;18.80;45.61;99713.66;5078928;28;20043;-44
2023/04/13 07:18:33;;;;;;;;;;;;;;;18.83;45.36;99706.72;5079615;28;20047;-45
2023/04/13 07:20:59;;;;;;;0.20;0.20;;;;;;;18.82;45.31;99705.88;5096964;28;19946;-45
2023/04/13 07:23:24;;;;;;;0.20;0.20;;;;;;;18.84;45.38;99717.44;5096795;28;20043;-46
2023/04/13 07:25:50;;;;;;;0.30;0.30;;;;;;;18.84;45.38;99713.88;5091442;28;20054;-44
2023/04/13 07:28:16;;;;;;;0.20;0.20;;;;;;;18.84;45.16;99722.13;5117500;28;20077;-44
2023/04/13 07:30:42;;;;;;;0.20;0.20;;;;;;;18.85;44.99;99718.25;5117422;28;20487;-44
2023/04/13 07:33:08;;;;;;;0.20;0.20;;;;;;;18.83;45.16;99726.84;5116952;28;20480;-43
2023/04/13 07:35:35;;;;;;;0.20;0.20;;;;;;;18.85;44.85;99729.28;5116863;28;20042;-45
2023/04/13 07:38:01;;;;;;;0.20;0.20;;;;;;;18.85;44.96;99727.34;5114883;28;20092;-43
2023/04/13 07:40:27;;;;;;;0.20;0.20;;;;;;;18.84;44.89;99727.66;5117008;27;20096;-47
2023/04/13 07:42:52;;;;;;;0.20;0.20;;;;;;;18.83;44.84;99735.13;5117406;27;20047;-45
2023/04/13 07:45:19;;;;;;;0.20;0.20;;;;;;;18.84;44.98;99742.25;5096747;27;20269;-43
2023/04/13 07:47:45;;;;;;;0.30;0.30;;;;;;;18.84;44.92;99744.22;5096872;28;20051;-44
2023/04/13 07:50:12;;;;;;;0.20;0.20;;;;;;;18.84;44.60;99747.78;5078495;28;20047;-44
2023/04/13 07:52:38;;;;;;;0.30;0.30;;;;;;;18.84;44.92;99749.72;5096568;28;20043;-47
2023/04/13 07:55:04;;;;;;;0.20;0.20;;;;;;;18.84;44.81;99749.72;5094152;28;20090;-43
2023/04/13 07:57:30;;;;;;;0.20;0.20;;;;;;;18.83;44.76;99756.38;5078761;28;20686;-42
2023/04/13 07:59:56;;;;;;;0.20;0.20;;;;;;;18.83;44.69;99762.69;5096471;28;20318;-45
2023/04/13 08:02:22;;;;;;;0.20;0.20;;;;;;;18.84;44.79;99767.09;5096322;28;20089;-45
2023/04/13 08:04:48;;;;;;;0.20;0.20;;;;;;;18.83;44.75;99762.69;5095984;28;20059;-43
2023/04/13 08:07:14;;;;;;;0.20;0.20;;;;;;;18.83;44.66;99762.69;5096500;28;20048;-44
2023/04/13 08:09:41;;;;;;;0.20;0.20;;;;;;;18.83;44.75;99770.97;5096456;28;20457;-47
2023/04/13 08:12:07;;;;;;;0.20;0.20;;;;;;;18.83;44.76;99782.00;5061325;28;20044;-46
2023/04/13 08:14:33;;;;;;;0.20;0.20;;;;;;;18.83;44.61;99776.50;5078157;28;20202;-45
2023/04/13 08:17:00;;;;;;;0.20;0.20;;;;;;;18.84;44.84;99780.88;5078040;28;20128;-46
2023/04/13 08:19:29;;;;;;;0.20;0.20;;;;;;;18.82;44.88;99783.09;5096781;28;20044;-42
2023/04/13 08:21:55;;;;;;;0.20;0.20;;;;;;;18.84;44.81;99793.84;5096298;28;20118;-44
2023/04/13 08:24:21;;;;;;;0.20;0.20;;;;;;;18.84;44.71;99799.38;5107364;27;20047;-43
2023/04/13 08:26:46;;;;;;;0.20;0.20;;;;;;;18.84;44.66;99802.13;5116096;28;20055;-45
2023/04/13 08:29:13;;;;;;;0.20;0.20;;;;;;;18.84;44.79;99802.13;5116954;28;20550;-45
2023/04/13 08:31:39;;;;;;;0.20;0.20;;;;;;;18.84;44.67;99804.88;5097866;28;20627;-45
2023/04/13 08:34:05;;;;;;;0.20;0.20;;;;;;;18.83;44.75;99808.78;5097875;28;20051;-43
2023/04/13 08:36:32;;;;;;;0.20;0.20;;;;;;;18.84;44.84;99810.41;5097639;28;20178;-45
2023/04/13 08:38:57;;;;;;;0.20;0.20;;;;;;;18.83;44.89;99815.13;5116149;28;20062;-43
2023/04/13 08:41:24;;;;;;;0.30;0.30;;;;;;;18.84;44.76;99813.97;5116385;27;20793;-46
2023/04/13 08:43:50;;;;;;;0.20;0.20;;;;;;;18.84;44.50;99813.16;5108398;27;20234;-45
2023/04/13 08:46:18;;;;;;;0.20;0.20;;;;;;;18.84;44.57;99824.19;5077120;28;20054;-44
2023/04/13 08:48:45;;;;;;;0.20;0.20;;;;;;;18.83;44.69;99819.81;5077680;28;20062;-44
2023/04/13 08:51:21;;;;;;;0.20;0.20;;;;;;;18.83;44.71;99828.91;5063548;28;20048;-43
2023/04/13 08:53:47;;;;;;;0.20;0.20;;;;;;;18.83;44.73;99826.16;5077100;28;20043;-44
2023/04/13 08:56:13;;;;;;;0.20;0.20;;;;;;;18.83;44.64;99830.84;5103812;27;20451;-44
2023/04/13 08:58:41;;;;;;;0.20;0.20;;;;;;;18.83;44.47;99834.41;5097561;28;20043;-44
2023/04/13 09:01:12;;;;;;;0.20;0.20;;;;;;;18.84;44.79;99832.47;5097800;28;20043;-44
2023/04/13 09:03:51;;;;;;;0.20;0.20;;;;;;;18.84;44.57;99832.47;5097653;28;20785;-45
2023/04/13 09:06:24;;;;;;;0.20;0.20;;;;;;;18.84;44.71;99833.28;5115702;28;20665;-43
2023/04/13 09:08:52;;;;;;;0.20;0.20;;;;;;;18.83;44.54;99839.94;5097193;28;20089;-44
2023/04/13 09:11:18;;;;;;;0.10;0.10;;;;;;;18.84;44.80;99838.81;5097481;28;20098;-42
2023/04/13 09:13:49;;;;;;;0.20;0.20;;;;;;;18.84;44.62;99846.28;5115365;28;20070;-44
2023/04/13 09:16:15;;;;;;;0.20;0.20;;;;;;;18.84;44.66;99838.00;5097022;28;20039;-46
2023/04/13 09:18:50;;;;;;;0.20;0.20;;;;;;;18.84;44.47;99852.59;5115333;28;20050;-43
2023/04/13 09:21:16;;;;;;;0.30;0.30;;;;;;;18.84;44.58;99851.78;5115210;28;20418;-44
2023/04/13 09:23:58;;;;;;;0.20;0.20;;;;;;;18.83;44.50;99859.25;5115030;27;20050;-45
2023/04/13 09:26:24;;;;;;;0.20;0.20;;;;;;;18.84;44.59;99857.31;5096301;28;20419;-42
2023/04/13 09:28:53;;;;;;;0.20;0.20;;;;;;;18.83;44.47;99858.44;5096584;28;20043;-45
2023/04/13 09:31:21;;;;;;;0.20;0.20;;;;;;;18.83;44.52;99859.25;5097715;28;20403;-44
2023/04/13 09:33:50;;;;;;;0.20;0.20;;;;;;;18.83;44.75;99862.00;5115387;28;20392;-45
2023/04/13 09:36:18;;;;;;;0.20;0.20;;;;;;;18.84;44.56;99868.34;5096602;28;20121;-44
2023/04/13 09:38:50;;;;;;;0.20;0.20;;;;;;;18.82;44.60;99876.91;5097156;28;20043;-43
2023/04/13 09:41:15;;;;;;;0.20;0.20;;;;;;;18.83;44.48;99878.56;5097123;28;20070;-44
2023/04/13 09:43:41;;;;;;;0.20;0.20;;;;;;;18.83;44.38;99880.50;5115206;28;20058;-47
2023/04/13 09:46:14;;;;;;;0.20;0.20;;;;;;;18.84;44.60;99882.13;5114739;28;20039;-43
2023/04/13 09:48:40;;;;;;;0.20;0.20;;;;;;;18.84;44.71;99887.66;5111555;28;20051;-44
2023/04/13 09:51:07;;;;;;;0.20;0.20;;;;;;;18.83;44.51;99881.31;5094449;28;20057;-43
2023/04/13 09:53:48;;;;;;;0.20;0.20;;;;;;;18.84;44.46;99893.16;5081579;28;20547;-44
2023/04/13 09:56:15;;;;;;;0.30;0.30;;;;;;;18.84;44.56;99891.22;5114639;28;20046;-42
2023/04/13 09:58:43;;;;;;;0.20;0.20;;;;;;;18.84;44.32;99885.69;5096709;28;20396;-42
2023/04/13 10:01:10;;;;;;;0.20;0.20;;;;;;;18.83;44.59;99889.59;5114766;28;20043;-44
2023/04/13 10:03:36;;;;;;;0.20;0.20;;;;;;;18.85;44.58;99901.13;5096527;28;20107;-43
2023/04/13 10:06:07;;;;;;;0.20;0.20;;;;;;;18.84;44.41;99902.25;5079084;28;20563;-44
2023/04/13 10:08:36;;;;;;;0.20;0.20;;;;;;;18.83;44.76;99897.06;5115129;27;20043;-44
2023/04/13 10:11:09;;;;;;;0.20;0.20;;;;;;;18.83;44.31;99900.63;5118303;28;20051;-45
2023/04/13 10:13:42;;;;;;;0.20;0.20;;;;;;;18.84;44.69;99901.44;5118360;28;20046;-44
2023/04/13 10:16:48;;;;;;;0.22;0.22;;;;;;;18.84;44.33;99904.19;5099958;28;20047;-42
2023/04/13 10:19:17;;;;;;;0.20;0.20;;;;;;;18.83;44.41;99911.66;5102983;28;20050;-42
2023/04/13 10:21:45;;;;;;;0.20;0.20;;;;;;;18.84;44.64;99916.03;5118226;28;20075;-44
2023/04/13 10:24:11;;;;;;;;;;;;;;;18.83;44.50;99917.19;5118744;27;20054;-44
2023/04/13 10:26:38;;;;;;;0.20;0.20;;;;;;;18.83;44.51;99921.88;5103438;28;20279;-46
2023/04/13 10:29:05;;;;;;;0.20;0.20;;;;;;;18.83;44.58;99925.44;5099961;28;20067;-44
2023/04/13 10:31:45;;;;;;;0.20;0.20;;;;;;;18.83;44.55;99928.22;5099857;28;20054;-42
2023/04/13 10:34:22;;;;;;;0.20;0.20;;;;;;;18.84;44.62;99934.53;5084607;28;20039;-45
2023/04/13 10:36:50;;;;;;;0.20;0.20;;;;;;;18.84;44.30;99935.34;5118494;28;20043;-44
2023/04/13 10:39:23;;;;;;;0.20;0.20;;;;;;;18.83;44.23;99941.19;5118416;28;20040;-45
2023/04/13 10:42:05;;;;;;;0.20;0.20;;;;;;;18.84;44.53;99946.38;5118118;28;20398;-43
2023/04/13 10:44:51;;;;;;;0.20;0.20;;;;;;;18.83;44.44;99950.28;5117092;27;20043;-44
2023/04/13 10:47:19;;;;;;;0.20;0.20;;;;;;;18.83;44.24;99949.47;5082358;28;20134;-42
2023/04/13 10:49:46;;;;;;;0.20;0.20;;;;;;;18.84;44.68;99949.16;5062798;28;20520;-44
2023/04/13 10:52:13;;;;;;;0.20;0.20;;;;;;;18.84;44.28;99946.38;5097922;28;20067;-44
2023/04/13 10:54:40;;;;;;;0.20;0.20;;;;;;;18.83;44.38;99958.56;5093827;28;20079;-44
2023/04/13 10:57:08;;;;;;;0.20;0.20;;;;;;;18.84;44.66;99948.34;5099865;28;20055;-44
2023/04/13 10:59:44;;;;;;;;;;;;;;;18.85;44.57;99958.25;5118187;28;20100;-43
2023/04/13 11:02:15;;;;;;;0.20;0.20;;;;;;;18.83;44.31;99954.97;5118189;27;19935;-43
2023/04/13 11:04:43;;;;;;;0.20;0.20;;;;;;;18.83;44.34;99947.53;5103493;27;20058;-43
2023/04/13 11:07:13;;;;;;;0.20;0.20;;;;;;;18.83;44.40;99961.31;5079342;28;20048;-44
2023/04/13 11:09:39;;;;;;;0.20;0.20;;;;;;;18.84;44.38;99960.19;5078737;28;20086;-45
2023/04/13 11:12:07;;;;;;;0.20;0.20;;;;;;;18.85;44.55;99969.28;5078487;28;20051;-45
2023/04/13 11:14:36;;;;;;;0.20;0.20;;;;;;;18.83;44.42;99966.81;5096746;28;20052;-43
2023/04/13 11:17:05;;;;;;;0.20;0.20;;;;;;;18.85;44.51;99969.28;5062630;28;20080;-44
2023/04/13 11:19:30;;;;;;;0.20;0.20;;;;;;;18.83;44.61;99969.59;5061093;28;20048;-44
2023/04/13 11:21:58;;;;;;;0.20;0.20;;;;;;;18.84;44.26;99973.16;5097034;28;20103;-44
2023/04/13 11:24:32;;;;;;;0.20;0.20;;;;;;;18.84;44.38;99978.69;5114746;27;20047;-45
2023/04/13 11:26:58;;;;;;;0.30;0.30;;;;;;;18.84;44.30;99978.69;5084780;28;20487;-44
2023/04/13 11:29:24;;;;;;;0.20;0.20;;;;;;;18.83;44.31;99979.81;5098885;28;20039;-43
2023/04/13 11:31:50;;;;;;;0.30;0.30;;;;;;;18.84;44.53;99985.00;5117058;28;20043;-44
2023/04/13 11:34:25;;;;;;;0.28;0.28;;;;;;;18.84;44.29;99987.78;5116891;28;20047;-43
2023/04/13 11:37:06;;;;;;;0.20;0.20;;;;;;;18.84;44.37;99989.72;5117474;28;20047;-44
2023/04/13 11:39:33;;;;;;;0.20;0.20;;;;;;;18.84;44.57;99987.78;5117143;28;20466;-44